sensor_id;sensor_type;location;lat;lon;timestamp;P1;durP1;ratioP1;P2;durP2;ratioP2
3006;SDS011;1513;47.650;10.720;2024-03-02T00:00:30;109.73;;;9.83;;
3006;SDS011;1513;47.650;10.720;2024-03-02T00:02:56;80.93;;;10.60;;
3006;SDS011;1513;47.650;10.720;2024-03-02T00:05:22;97.53;;;11.13;;
3006;SDS011;1513;47.650;10.720;2024-03-02T00:07:55;82.53;;;9.80;;
3006;SDS011;1513;47.650;10.720;2024-03-02T00:10:25;84.33;;;10.40;;
3006;SDS011;1513;47.650;10.720;2024-03-02T00:12:56;92.07;;;10.50;;
3006;SDS011;1513;47.650;10.720;2024-03-02T00:15:32;77.80;;;10.43;;
3006;SDS011;1513;47.650;10.720;2024-03-02T00:18:14;13.80;;;6.73;;
3006;SDS011;1513;47.650;10.720;2024-03-02T00:20:44;17.50;;;8.07;;
3006;SDS011;1513;47.650;10.720;2024-03-02T00:23:13;12.60;;;6.87;;
3006;SDS011;1513;47.650;10.720;2024-03-02T00:25:44;12.13;;;7.10;;
3006;SDS011;1513;47.650;10.720;2024-03-02T00:28:27;12.90;;;6.90;;
3006;SDS011;1513;47.650;10.720;2024-03-02T00:31:06;13.97;;;7.87;;
3006;SDS011;1513;47.650;10.720;2024-03-02T00:33:34;13.40;;;7.10;;
3006;SDS011;1513;47.650;10.720;2024-03-02T00:36:01;9.67;;;5.97;;
3006;SDS011;1513;47.650;10.720;2024-03-02T00:38:29;9.97;;;6.10;;
3006;SDS011;1513;47.650;10.720;2024-03-02T00:40:56;11.40;;;6.37;;
3006;SDS011;1513;47.650;10.720;2024-03-02T00:46:12;10.00;;;6.57;;
3006;SDS011;1513;47.650;10.720;2024-03-02T00:48:51;12.07;;;6.30;;
3006;SDS011;1513;47.650;10.720;2024-03-02T00:51:20;12.10;;;6.70;;
3006;SDS011;1513;47.650;10.720;2024-03-02T00:53:47;10.73;;;6.43;;
3006;SDS011;1513;47.650;10.720;2024-03-02T00:56:13;12.10;;;5.77;;
3006;SDS011;1513;47.650;10.720;2024-03-02T00:58:39;9.93;;;5.60;;
3006;SDS011;1513;47.650;10.720;2024-03-02T01:01:06;11.27;;;6.33;;
3006;SDS011;1513;47.650;10.720;2024-03-02T01:03:32;11.20;;;6.37;;
3006;SDS011;1513;47.650;10.720;2024-03-02T01:05:59;11.30;;;6.50;;
3006;SDS011;1513;47.650;10.720;2024-03-02T01:08:25;11.53;;;6.03;;
3006;SDS011;1513;47.650;10.720;2024-03-02T01:10:52;12.47;;;5.97;;
3006;SDS011;1513;47.650;10.720;2024-03-02T01:13:18;12.20;;;6.13;;
3006;SDS011;1513;47.650;10.720;2024-03-02T01:15:44;13.07;;;6.60;;
3006;SDS011;1513;47.650;10.720;2024-03-02T01:18:10;18.07;;;7.80;;
3006;SDS011;1513;47.650;10.720;2024-03-02T01:20:36;12.80;;;7.10;;
3006;SDS011;1513;47.650;10.720;2024-03-02T01:23:03;11.73;;;6.47;;
3006;SDS011;1513;47.650;10.720;2024-03-02T01:25:29;15.03;;;7.43;;
3006;SDS011;1513;47.650;10.720;2024-03-02T01:27:55;16.20;;;8.27;;
3006;SDS011;1513;47.650;10.720;2024-03-02T01:30:21;14.97;;;7.50;;
3006;SDS011;1513;47.650;10.720;2024-03-02T01:32:47;12.30;;;6.93;;
3006;SDS011;1513;47.650;10.720;2024-03-02T01:35:14;10.60;;;6.33;;
3006;SDS011;1513;47.650;10.720;2024-03-02T01:37:40;14.73;;;7.00;;
3006;SDS011;1513;47.650;10.720;2024-03-02T01:40:07;13.30;;;6.90;;
3006;SDS011;1513;47.650;10.720;2024-03-02T01:42:36;19.03;;;10.50;;
3006;SDS011;1513;47.650;10.720;2024-03-02T01:45:07;23.57;;;11.40;;
3006;SDS011;1513;47.650;10.720;2024-03-02T01:47:34;22.73;;;11.50;;
3006;SDS011;1513;47.650;10.720;2024-03-02T01:50:00;15.03;;;8.23;;
3006;SDS011;1513;47.650;10.720;2024-03-02T01:52:27;10.77;;;6.70;;
3006;SDS011;1513;47.650;10.720;2024-03-02T01:54:54;12.03;;;6.10;;
3006;SDS011;1513;47.650;10.720;2024-03-02T01:57:21;7.40;;;4.57;;
3006;SDS011;1513;47.650;10.720;2024-03-02T01:59:47;9.63;;;5.60;;
3006;SDS011;1513;47.650;10.720;2024-03-02T02:02:14;10.53;;;5.90;;
3006;SDS011;1513;47.650;10.720;2024-03-02T02:04:41;12.13;;;6.20;;
3006;SDS011;1513;47.650;10.720;2024-03-02T02:07:07;9.00;;;5.47;;
3006;SDS011;1513;47.650;10.720;2024-03-02T02:09:33;11.13;;;6.53;;
3006;SDS011;1513;47.650;10.720;2024-03-02T02:11:59;11.33;;;6.03;;
3006;SDS011;1513;47.650;10.720;2024-03-02T02:14:26;8.10;;;5.90;;
3006;SDS011;1513;47.650;10.720;2024-03-02T02:16:52;13.17;;;6.93;;
3006;SDS011;1513;47.650;10.720;2024-03-02T02:19:18;14.80;;;7.80;;
3006;SDS011;1513;47.650;10.720;2024-03-02T02:21:44;15.97;;;7.93;;
3006;SDS011;1513;47.650;10.720;2024-03-02T02:24:10;10.80;;;6.20;;
3006;SDS011;1513;47.650;10.720;2024-03-02T02:26:39;11.37;;;6.40;;
3006;SDS011;1513;47.650;10.720;2024-03-02T02:29:06;10.30;;;5.83;;
3006;SDS011;1513;47.650;10.720;2024-03-02T02:31:38;8.60;;;5.33;;
3006;SDS011;1513;47.650;10.720;2024-03-02T02:36:53;9.43;;;5.60;;
3006;SDS011;1513;47.650;10.720;2024-03-02T02:39:20;12.00;;;7.10;;
3006;SDS011;1513;47.650;10.720;2024-03-02T02:41:50;14.17;;;7.13;;
3006;SDS011;1513;47.650;10.720;2024-03-02T02:44:16;14.37;;;6.97;;
3006;SDS011;1513;47.650;10.720;2024-03-02T02:46:43;15.47;;;8.33;;
3006;SDS011;1513;47.650;10.720;2024-03-02T02:49:10;20.70;;;10.30;;
3006;SDS011;1513;47.650;10.720;2024-03-02T02:51:36;20.20;;;10.50;;
3006;SDS011;1513;47.650;10.720;2024-03-02T02:54:02;14.70;;;8.67;;
3006;SDS011;1513;47.650;10.720;2024-03-02T02:56:28;15.10;;;8.37;;
3006;SDS011;1513;47.650;10.720;2024-03-02T02:58:54;23.20;;;12.60;;
3006;SDS011;1513;47.650;10.720;2024-03-02T03:01:21;29.17;;;15.87;;
3006;SDS011;1513;47.650;10.720;2024-03-02T03:03:47;14.17;;;7.73;;
3006;SDS011;1513;47.650;10.720;2024-03-02T03:06:13;11.83;;;7.07;;
3006;SDS011;1513;47.650;10.720;2024-03-02T03:08:39;11.73;;;7.60;;
3006;SDS011;1513;47.650;10.720;2024-03-02T03:11:05;13.20;;;7.30;;
3006;SDS011;1513;47.650;10.720;2024-03-02T03:13:32;11.83;;;6.77;;
3006;SDS011;1513;47.650;10.720;2024-03-02T03:15:59;10.37;;;6.40;;
3006;SDS011;1513;47.650;10.720;2024-03-02T03:18:25;9.27;;;5.63;;
3006;SDS011;1513;47.650;10.720;2024-03-02T03:20:52;9.13;;;4.73;;
3006;SDS011;1513;47.650;10.720;2024-03-02T03:23:18;8.80;;;5.50;;
3006;SDS011;1513;47.650;10.720;2024-03-02T03:25:44;6.90;;;4.43;;
3006;SDS011;1513;47.650;10.720;2024-03-02T03:28:10;6.97;;;4.80;;
3006;SDS011;1513;47.650;10.720;2024-03-02T03:30:37;6.87;;;4.10;;
3006;SDS011;1513;47.650;10.720;2024-03-02T03:33:04;7.03;;;4.00;;
3006;SDS011;1513;47.650;10.720;2024-03-02T03:35:33;6.10;;;4.20;;
3006;SDS011;1513;47.650;10.720;2024-03-02T03:38:00;9.90;;;4.97;;
3006;SDS011;1513;47.650;10.720;2024-03-02T03:40:26;5.10;;;3.47;;
3006;SDS011;1513;47.650;10.720;2024-03-02T03:42:52;8.03;;;4.50;;
3006;SDS011;1513;47.650;10.720;2024-03-02T03:45:19;5.60;;;4.00;;
3006;SDS011;1513;47.650;10.720;2024-03-02T03:47:46;4.93;;;3.70;;
3006;SDS011;1513;47.650;10.720;2024-03-02T03:50:12;8.73;;;5.00;;
3006;SDS011;1513;47.650;10.720;2024-03-02T03:52:38;17.03;;;8.30;;
3006;SDS011;1513;47.650;10.720;2024-03-02T03:55:05;9.40;;;5.17;;
3006;SDS011;1513;47.650;10.720;2024-03-02T03:57:31;10.27;;;5.40;;
3006;SDS011;1513;47.650;10.720;2024-03-02T03:59:57;13.77;;;5.53;;
3006;SDS011;1513;47.650;10.720;2024-03-02T04:02:23;10.40;;;5.50;;
3006;SDS011;1513;47.650;10.720;2024-03-02T04:04:50;9.50;;;5.90;;
3006;SDS011;1513;47.650;10.720;2024-03-02T04:07:16;12.40;;;6.93;;
3006;SDS011;1513;47.650;10.720;2024-03-02T04:09:42;15.30;;;7.13;;
3006;SDS011;1513;47.650;10.720;2024-03-02T04:12:08;12.27;;;6.50;;
3006;SDS011;1513;47.650;10.720;2024-03-02T04:14:36;13.70;;;6.87;;
3006;SDS011;1513;47.650;10.720;2024-03-02T04:17:02;12.93;;;6.60;;
3006;SDS011;1513;47.650;10.720;2024-03-02T04:19:29;13.97;;;7.97;;
3006;SDS011;1513;47.650;10.720;2024-03-02T04:21:55;13.77;;;7.40;;
3006;SDS011;1513;47.650;10.720;2024-03-02T04:24:21;12.50;;;7.43;;
3006;SDS011;1513;47.650;10.720;2024-03-02T04:26:47;10.80;;;6.33;;
3006;SDS011;1513;47.650;10.720;2024-03-02T04:29:13;14.07;;;7.87;;
3006;SDS011;1513;47.650;10.720;2024-03-02T04:31:40;14.97;;;7.87;;
3006;SDS011;1513;47.650;10.720;2024-03-02T04:34:06;11.73;;;6.67;;
3006;SDS011;1513;47.650;10.720;2024-03-02T04:36:33;12.17;;;6.20;;
3006;SDS011;1513;47.650;10.720;2024-03-02T04:38:59;9.50;;;4.73;;
3006;SDS011;1513;47.650;10.720;2024-03-02T04:41:25;10.47;;;4.77;;
3006;SDS011;1513;47.650;10.720;2024-03-02T04:43:52;11.63;;;5.50;;
3006;SDS011;1513;47.650;10.720;2024-03-02T04:46:19;10.20;;;5.60;;
3006;SDS011;1513;47.650;10.720;2024-03-02T04:48:45;15.80;;;7.40;;
3006;SDS011;1513;47.650;10.720;2024-03-02T04:51:11;9.97;;;5.27;;
3006;SDS011;1513;47.650;10.720;2024-03-02T04:53:38;11.30;;;6.53;;
3006;SDS011;1513;47.650;10.720;2024-03-02T04:56:04;10.40;;;4.97;;
3006;SDS011;1513;47.650;10.720;2024-03-02T04:58:53;9.20;;;5.07;;
3006;SDS011;1513;47.650;10.720;2024-03-02T05:01:19;6.50;;;3.67;;
3006;SDS011;1513;47.650;10.720;2024-03-02T05:03:45;6.73;;;3.90;;
3006;SDS011;1513;47.650;10.720;2024-03-02T05:06:11;5.60;;;3.47;;
3006;SDS011;1513;47.650;10.720;2024-03-02T05:08:38;5.07;;;4.17;;
3006;SDS011;1513;47.650;10.720;2024-03-02T05:11:04;6.80;;;4.07;;
3006;SDS011;1513;47.650;10.720;2024-03-02T05:13:49;9.40;;;4.10;;
3006;SDS011;1513;47.650;10.720;2024-03-02T05:16:15;8.13;;;4.33;;
3006;SDS011;1513;47.650;10.720;2024-03-02T05:18:41;5.70;;;3.77;;
3006;SDS011;1513;47.650;10.720;2024-03-02T05:21:07;5.67;;;3.33;;
3006;SDS011;1513;47.650;10.720;2024-03-02T05:23:33;6.57;;;3.77;;
3006;SDS011;1513;47.650;10.720;2024-03-02T05:26:00;9.70;;;4.97;;
3006;SDS011;1513;47.650;10.720;2024-03-02T05:28:26;8.63;;;5.17;;
3006;SDS011;1513;47.650;10.720;2024-03-02T05:30:52;7.17;;;4.17;;
3006;SDS011;1513;47.650;10.720;2024-03-02T05:33:18;6.03;;;3.97;;
3006;SDS011;1513;47.650;10.720;2024-03-02T05:35:47;6.33;;;3.57;;
3006;SDS011;1513;47.650;10.720;2024-03-02T05:38:15;7.23;;;4.40;;
3006;SDS011;1513;47.650;10.720;2024-03-02T05:40:42;9.43;;;5.60;;
3006;SDS011;1513;47.650;10.720;2024-03-02T05:43:08;8.20;;;5.17;;
3006;SDS011;1513;47.650;10.720;2024-03-02T05:45:34;8.00;;;4.83;;
3006;SDS011;1513;47.650;10.720;2024-03-02T05:48:01;9.30;;;5.13;;
3006;SDS011;1513;47.650;10.720;2024-03-02T05:50:27;6.47;;;4.67;;
3006;SDS011;1513;47.650;10.720;2024-03-02T05:52:54;5.90;;;4.23;;
3006;SDS011;1513;47.650;10.720;2024-03-02T05:55:21;5.83;;;3.60;;
3006;SDS011;1513;47.650;10.720;2024-03-02T05:57:47;6.30;;;3.37;;
3006;SDS011;1513;47.650;10.720;2024-03-02T06:00:32;5.27;;;3.50;;
3006;SDS011;1513;47.650;10.720;2024-03-02T06:02:58;6.70;;;4.80;;
3006;SDS011;1513;47.650;10.720;2024-03-02T06:05:24;6.07;;;4.07;;
3006;SDS011;1513;47.650;10.720;2024-03-02T06:07:51;7.70;;;4.33;;
3006;SDS011;1513;47.650;10.720;2024-03-02T06:10:17;5.80;;;3.47;;
3006;SDS011;1513;47.650;10.720;2024-03-02T06:12:43;5.87;;;3.87;;
3006;SDS011;1513;47.650;10.720;2024-03-02T06:15:09;5.20;;;3.80;;
3006;SDS011;1513;47.650;10.720;2024-03-02T06:17:36;6.03;;;3.40;;
3006;SDS011;1513;47.650;10.720;2024-03-02T06:20:02;5.07;;;3.80;;
3006;SDS011;1513;47.650;10.720;2024-03-02T06:22:29;7.13;;;2.90;;
3006;SDS011;1513;47.650;10.720;2024-03-02T06:24:55;3.13;;;2.60;;
3006;SDS011;1513;47.650;10.720;2024-03-02T06:27:21;3.80;;;2.63;;
3006;SDS011;1513;47.650;10.720;2024-03-02T06:29:47;2.83;;;2.50;;
3006;SDS011;1513;47.650;10.720;2024-03-02T06:32:13;3.37;;;2.80;;
3006;SDS011;1513;47.650;10.720;2024-03-02T06:34:39;10.40;;;6.03;;
3006;SDS011;1513;47.650;10.720;2024-03-02T06:37:06;8.67;;;6.07;;
3006;SDS011;1513;47.650;10.720;2024-03-02T06:39:32;12.23;;;7.80;;
3006;SDS011;1513;47.650;10.720;2024-03-02T06:41:59;14.20;;;8.37;;
3006;SDS011;1513;47.650;10.720;2024-03-02T06:44:25;11.33;;;7.40;;
3006;SDS011;1513;47.650;10.720;2024-03-02T06:46:52;14.70;;;6.87;;
3006;SDS011;1513;47.650;10.720;2024-03-02T06:49:21;9.87;;;6.30;;
3006;SDS011;1513;47.650;10.720;2024-03-02T06:51:47;10.63;;;7.53;;
3006;SDS011;1513;47.650;10.720;2024-03-02T06:54:13;8.67;;;5.93;;
3006;SDS011;1513;47.650;10.720;2024-03-02T06:56:39;6.70;;;4.60;;
3006;SDS011;1513;47.650;10.720;2024-03-02T06:59:05;4.90;;;3.73;;
3006;SDS011;1513;47.650;10.720;2024-03-02T07:01:32;9.67;;;4.90;;
3006;SDS011;1513;47.650;10.720;2024-03-02T07:03:58;7.17;;;4.70;;
3006;SDS011;1513;47.650;10.720;2024-03-02T07:06:24;7.70;;;4.63;;
3006;SDS011;1513;47.650;10.720;2024-03-02T07:08:50;5.80;;;4.23;;
3006;SDS011;1513;47.650;10.720;2024-03-02T07:11:17;7.30;;;4.30;;
3006;SDS011;1513;47.650;10.720;2024-03-02T07:13:43;6.67;;;4.37;;
3006;SDS011;1513;47.650;10.720;2024-03-02T07:16:09;6.90;;;4.47;;
3006;SDS011;1513;47.650;10.720;2024-03-02T07:18:55;4.80;;;3.37;;
3006;SDS011;1513;47.650;10.720;2024-03-02T07:21:22;4.10;;;3.37;;
3006;SDS011;1513;47.650;10.720;2024-03-02T07:23:48;3.40;;;2.67;;
3006;SDS011;1513;47.650;10.720;2024-03-02T07:26:15;2.50;;;2.27;;
3006;SDS011;1513;47.650;10.720;2024-03-02T07:28:43;5.63;;;3.57;;
3006;SDS011;1513;47.650;10.720;2024-03-02T07:31:10;7.60;;;5.63;;
3006;SDS011;1513;47.650;10.720;2024-03-02T07:33:37;5.63;;;4.10;;
3006;SDS011;1513;47.650;10.720;2024-03-02T07:36:03;5.13;;;3.93;;
3006;SDS011;1513;47.650;10.720;2024-03-02T07:38:29;6.37;;;4.07;;
3006;SDS011;1513;47.650;10.720;2024-03-02T07:40:57;6.27;;;4.93;;
3006;SDS011;1513;47.650;10.720;2024-03-02T07:43:23;18.20;;;9.70;;
3006;SDS011;1513;47.650;10.720;2024-03-02T07:45:50;8.37;;;5.17;;
3006;SDS011;1513;47.650;10.720;2024-03-02T07:48:16;6.10;;;4.23;;
3006;SDS011;1513;47.650;10.720;2024-03-02T07:50:42;8.17;;;4.87;;
3006;SDS011;1513;47.650;10.720;2024-03-02T07:53:08;6.60;;;4.50;;
3006;SDS011;1513;47.650;10.720;2024-03-02T07:55:35;4.97;;;3.60;;
3006;SDS011;1513;47.650;10.720;2024-03-02T07:58:01;10.13;;;4.40;;
3006;SDS011;1513;47.650;10.720;2024-03-02T08:00:27;7.80;;;6.37;;
3006;SDS011;1513;47.650;10.720;2024-03-02T08:02:53;9.47;;;6.60;;
3006;SDS011;1513;47.650;10.720;2024-03-02T08:05:20;9.80;;;6.80;;
3006;SDS011;1513;47.650;10.720;2024-03-02T08:07:46;8.17;;;5.17;;
3006;SDS011;1513;47.650;10.720;2024-03-02T08:10:17;7.53;;;5.70;;
3006;SDS011;1513;47.650;10.720;2024-03-02T08:12:44;7.20;;;5.50;;
3006;SDS011;1513;47.650;10.720;2024-03-02T08:15:11;8.23;;;5.80;;
3006;SDS011;1513;47.650;10.720;2024-03-02T08:17:40;9.50;;;6.50;;
3006;SDS011;1513;47.650;10.720;2024-03-02T08:20:13;8.80;;;5.50;;
3006;SDS011;1513;47.650;10.720;2024-03-02T08:22:39;10.03;;;7.17;;
3006;SDS011;1513;47.650;10.720;2024-03-02T08:25:06;9.57;;;6.50;;
3006;SDS011;1513;47.650;10.720;2024-03-02T08:27:33;8.10;;;5.50;;
3006;SDS011;1513;47.650;10.720;2024-03-02T08:29:59;6.17;;;4.50;;
3006;SDS011;1513;47.650;10.720;2024-03-02T08:32:25;6.80;;;4.80;;
3006;SDS011;1513;47.650;10.720;2024-03-02T08:34:51;7.10;;;4.80;;
3006;SDS011;1513;47.650;10.720;2024-03-02T08:37:18;6.73;;;5.10;;
3006;SDS011;1513;47.650;10.720;2024-03-02T08:39:44;5.60;;;4.80;;
3006;SDS011;1513;47.650;10.720;2024-03-02T08:42:11;4.67;;;3.70;;
3006;SDS011;1513;47.650;10.720;2024-03-02T08:44:37;6.83;;;5.07;;
3006;SDS011;1513;47.650;10.720;2024-03-02T08:47:03;5.33;;;4.00;;
3006;SDS011;1513;47.650;10.720;2024-03-02T08:49:30;3.83;;;3.43;;
3006;SDS011;1513;47.650;10.720;2024-03-02T08:51:56;7.63;;;5.50;;
3006;SDS011;1513;47.650;10.720;2024-03-02T08:54:22;9.63;;;6.43;;
3006;SDS011;1513;47.650;10.720;2024-03-02T08:56:48;7.20;;;5.23;;
3006;SDS011;1513;47.650;10.720;2024-03-02T08:59:15;8.17;;;6.00;;
3006;SDS011;1513;47.650;10.720;2024-03-02T09:01:41;12.17;;;5.90;;
3006;SDS011;1513;47.650;10.720;2024-03-02T09:04:08;18.43;;;6.40;;
3006;SDS011;1513;47.650;10.720;2024-03-02T09:06:34;7.93;;;5.23;;
3006;SDS011;1513;47.650;10.720;2024-03-02T09:09:01;4.13;;;3.10;;
3006;SDS011;1513;47.650;10.720;2024-03-02T09:11:27;7.33;;;4.73;;
3006;SDS011;1513;47.650;10.720;2024-03-02T09:13:53;5.83;;;4.80;;
3006;SDS011;1513;47.650;10.720;2024-03-02T09:16:21;8.70;;;5.90;;
3006;SDS011;1513;47.650;10.720;2024-03-02T09:18:47;16.80;;;7.40;;
3006;SDS011;1513;47.650;10.720;2024-03-02T09:21:13;4.10;;;3.67;;
3006;SDS011;1513;47.650;10.720;2024-03-02T09:23:40;6.03;;;4.47;;
3006;SDS011;1513;47.650;10.720;2024-03-02T09:26:06;2.70;;;2.50;;
3006;SDS011;1513;47.650;10.720;2024-03-02T09:28:32;4.17;;;2.87;;
3006;SDS011;1513;47.650;10.720;2024-03-02T09:31:00;9.43;;;5.90;;
3006;SDS011;1513;47.650;10.720;2024-03-02T09:33:26;4.30;;;3.20;;
3006;SDS011;1513;47.650;10.720;2024-03-02T09:35:52;4.53;;;3.30;;
3006;SDS011;1513;47.650;10.720;2024-03-02T09:38:19;5.77;;;3.13;;
3006;SDS011;1513;47.650;10.720;2024-03-02T09:40:45;2.60;;;2.37;;
3006;SDS011;1513;47.650;10.720;2024-03-02T09:43:11;2.23;;;2.03;;
3006;SDS011;1513;47.650;10.720;2024-03-02T09:45:38;1.90;;;1.80;;
3006;SDS011;1513;47.650;10.720;2024-03-02T09:48:05;3.50;;;3.00;;
3006;SDS011;1513;47.650;10.720;2024-03-02T09:50:32;2.33;;;2.13;;
3006;SDS011;1513;47.650;10.720;2024-03-02T09:52:58;2.53;;;2.33;;
3006;SDS011;1513;47.650;10.720;2024-03-02T09:55:24;2.53;;;2.43;;
3006;SDS011;1513;47.650;10.720;2024-03-02T09:57:51;2.63;;;1.67;;
3006;SDS011;1513;47.650;10.720;2024-03-02T10:00:17;1.77;;;1.67;;
3006;SDS011;1513;47.650;10.720;2024-03-02T10:02:43;2.40;;;1.57;;
3006;SDS011;1513;47.650;10.720;2024-03-02T10:05:22;1.67;;;1.57;;
3006;SDS011;1513;47.650;10.720;2024-03-02T10:08:00;2.30;;;2.10;;
3006;SDS011;1513;47.650;10.720;2024-03-02T10:10:37;1.23;;;1.13;;
3006;SDS011;1513;47.650;10.720;2024-03-02T10:13:12;1.77;;;1.67;;
3006;SDS011;1513;47.650;10.720;2024-03-02T10:15:39;1.27;;;1.17;;
3006;SDS011;1513;47.650;10.720;2024-03-02T10:18:09;1.40;;;1.30;;
3006;SDS011;1513;47.650;10.720;2024-03-02T10:20:37;1.80;;;1.30;;
3006;SDS011;1513;47.650;10.720;2024-03-02T10:23:13;1.20;;;0.97;;
3006;SDS011;1513;47.650;10.720;2024-03-02T10:25:41;1.30;;;1.20;;
3006;SDS011;1513;47.650;10.720;2024-03-02T10:28:08;1.40;;;1.30;;
3006;SDS011;1513;47.650;10.720;2024-03-02T10:30:35;1.23;;;1.13;;
3006;SDS011;1513;47.650;10.720;2024-03-02T10:33:01;2.10;;;1.33;;
3006;SDS011;1513;47.650;10.720;2024-03-02T10:35:28;1.70;;;1.60;;
3006;SDS011;1513;47.650;10.720;2024-03-02T10:37:59;1.93;;;1.60;;
3006;SDS011;1513;47.650;10.720;2024-03-02T10:40:26;3.03;;;1.57;;
3006;SDS011;1513;47.650;10.720;2024-03-02T10:42:54;3.07;;;1.90;;
3006;SDS011;1513;47.650;10.720;2024-03-02T10:45:20;1.70;;;1.57;;
3006;SDS011;1513;47.650;10.720;2024-03-02T10:47:49;1.63;;;1.53;;
3006;SDS011;1513;47.650;10.720;2024-03-02T10:50:16;2.17;;;1.83;;
3006;SDS011;1513;47.650;10.720;2024-03-02T10:52:42;1.43;;;1.33;;
3006;SDS011;1513;47.650;10.720;2024-03-02T10:55:09;2.27;;;1.50;;
3006;SDS011;1513;47.650;10.720;2024-03-02T10:57:56;1.43;;;1.33;;
3006;SDS011;1513;47.650;10.720;2024-03-02T11:00:23;1.93;;;1.70;;
3006;SDS011;1513;47.650;10.720;2024-03-02T11:02:58;2.47;;;2.00;;
3006;SDS011;1513;47.650;10.720;2024-03-02T11:05:36;2.20;;;1.80;;
3006;SDS011;1513;47.650;10.720;2024-03-02T11:08:08;1.97;;;1.80;;
3006;SDS011;1513;47.650;10.720;2024-03-02T11:10:40;2.87;;;1.97;;
3006;SDS011;1513;47.650;10.720;2024-03-02T11:13:13;2.30;;;1.90;;
3006;SDS011;1513;47.650;10.720;2024-03-02T11:15:40;3.80;;;2.20;;
3006;SDS011;1513;47.650;10.720;2024-03-02T11:18:09;2.10;;;1.40;;
3006;SDS011;1513;47.650;10.720;2024-03-02T11:20:40;2.40;;;1.70;;
3006;SDS011;1513;47.650;10.720;2024-03-02T11:23:07;2.37;;;1.97;;
3006;SDS011;1513;47.650;10.720;2024-03-02T11:25:34;1.90;;;1.80;;
3006;SDS011;1513;47.650;10.720;2024-03-02T11:28:01;2.20;;;1.50;;
3006;SDS011;1513;47.650;10.720;2024-03-02T11:33:07;1.87;;;1.77;;
3006;SDS011;1513;47.650;10.720;2024-03-02T11:35:37;2.43;;;2.23;;
3006;SDS011;1513;47.650;10.720;2024-03-02T11:38:13;3.87;;;2.10;;
3006;SDS011;1513;47.650;10.720;2024-03-02T11:40:40;2.10;;;2.00;;
3006;SDS011;1513;47.650;10.720;2024-03-02T11:43:07;1.93;;;1.80;;
3006;SDS011;1513;47.650;10.720;2024-03-02T11:45:33;1.50;;;1.40;;
3006;SDS011;1513;47.650;10.720;2024-03-02T11:48:05;2.67;;;2.47;;
3006;SDS011;1513;47.650;10.720;2024-03-02T11:53:09;1.93;;;1.80;;
3006;SDS011;1513;47.650;10.720;2024-03-02T11:55:38;2.80;;;1.87;;
3006;SDS011;1513;47.650;10.720;2024-03-02T11:58:06;2.00;;;1.90;;
3006;SDS011;1513;47.650;10.720;2024-03-02T12:00:32;2.33;;;2.20;;
3006;SDS011;1513;47.650;10.720;2024-03-02T12:03:09;1.80;;;1.70;;
3006;SDS011;1513;47.650;10.720;2024-03-02T12:05:37;2.23;;;2.03;;
3006;SDS011;1513;47.650;10.720;2024-03-02T12:08:05;3.73;;;2.13;;
3006;SDS011;1513;47.650;10.720;2024-03-02T12:10:32;3.33;;;2.33;;
3006;SDS011;1513;47.650;10.720;2024-03-02T12:15:26;4.10;;;2.63;;
3006;SDS011;1513;47.650;10.720;2024-03-02T12:17:59;2.80;;;2.20;;
3006;SDS011;1513;47.650;10.720;2024-03-02T12:20:27;2.03;;;1.90;;
3006;SDS011;1513;47.650;10.720;2024-03-02T12:22:54;1.70;;;1.60;;
3006;SDS011;1513;47.650;10.720;2024-03-02T12:25:23;1.70;;;1.60;;
3006;SDS011;1513;47.650;10.720;2024-03-02T12:27:51;2.50;;;2.30;;
3006;SDS011;1513;47.650;10.720;2024-03-02T12:30:21;4.40;;;2.20;;
3006;SDS011;1513;47.650;10.720;2024-03-02T12:32:47;4.43;;;2.30;;
3006;SDS011;1513;47.650;10.720;2024-03-02T12:35:14;3.70;;;3.20;;
3006;SDS011;1513;47.650;10.720;2024-03-02T12:37:44;2.83;;;2.60;;
3006;SDS011;1513;47.650;10.720;2024-03-02T12:40:11;3.80;;;2.60;;
3006;SDS011;1513;47.650;10.720;2024-03-02T12:42:38;3.30;;;2.83;;
3006;SDS011;1513;47.650;10.720;2024-03-02T12:45:08;2.90;;;2.60;;
3006;SDS011;1513;47.650;10.720;2024-03-02T12:47:35;3.53;;;2.83;;
3006;SDS011;1513;47.650;10.720;2024-03-02T12:50:02;4.87;;;3.23;;
3006;SDS011;1513;47.650;10.720;2024-03-02T12:52:28;3.30;;;2.90;;
3006;SDS011;1513;47.650;10.720;2024-03-02T12:54:55;3.30;;;2.87;;
3006;SDS011;1513;47.650;10.720;2024-03-02T12:57:27;5.40;;;3.27;;
3006;SDS011;1513;47.650;10.720;2024-03-02T13:02:36;2.90;;;2.57;;
3006;SDS011;1513;47.650;10.720;2024-03-02T13:05:06;3.90;;;3.10;;
3006;SDS011;1513;47.650;10.720;2024-03-02T13:07:42;3.17;;;2.63;;
3006;SDS011;1513;47.650;10.720;2024-03-02T13:10:10;4.13;;;3.13;;
3006;SDS011;1513;47.650;10.720;2024-03-02T13:12:36;6.23;;;3.60;;
3006;SDS011;1513;47.650;10.720;2024-03-02T13:15:03;4.83;;;3.90;;
3006;SDS011;1513;47.650;10.720;2024-03-02T13:17:30;5.53;;;3.90;;
3006;SDS011;1513;47.650;10.720;2024-03-02T13:19:59;7.30;;;4.87;;
3006;SDS011;1513;47.650;10.720;2024-03-02T13:22:25;7.03;;;4.60;;
3006;SDS011;1513;47.650;10.720;2024-03-02T13:24:52;7.00;;;4.83;;
3006;SDS011;1513;47.650;10.720;2024-03-02T13:27:22;7.00;;;4.90;;
3006;SDS011;1513;47.650;10.720;2024-03-02T13:29:48;7.57;;;4.80;;
3006;SDS011;1513;47.650;10.720;2024-03-02T13:32:15;4.27;;;3.40;;
3006;SDS011;1513;47.650;10.720;2024-03-02T13:34:42;5.57;;;4.37;;
3006;SDS011;1513;47.650;10.720;2024-03-02T13:37:08;6.57;;;4.23;;
3006;SDS011;1513;47.650;10.720;2024-03-02T13:39:35;6.20;;;4.03;;
3006;SDS011;1513;47.650;10.720;2024-03-02T13:42:08;6.03;;;4.00;;
3006;SDS011;1513;47.650;10.720;2024-03-02T13:44:35;5.40;;;4.10;;
3006;SDS011;1513;47.650;10.720;2024-03-02T13:47:02;4.23;;;3.60;;
3006;SDS011;1513;47.650;10.720;2024-03-02T13:49:29;5.20;;;4.00;;
3006;SDS011;1513;47.650;10.720;2024-03-02T13:54:46;4.60;;;3.63;;
3006;SDS011;1513;47.650;10.720;2024-03-02T13:57:12;5.90;;;4.30;;
3006;SDS011;1513;47.650;10.720;2024-03-02T13:59:39;4.90;;;3.87;;
3006;SDS011;1513;47.650;10.720;2024-03-02T14:02:07;8.90;;;4.00;;
3006;SDS011;1513;47.650;10.720;2024-03-02T14:04:34;6.77;;;4.37;;
3006;SDS011;1513;47.650;10.720;2024-03-02T14:07:01;5.13;;;3.67;;
3006;SDS011;1513;47.650;10.720;2024-03-02T14:09:27;4.07;;;3.13;;
3006;SDS011;1513;47.650;10.720;2024-03-02T14:11:54;3.67;;;2.80;;
3006;SDS011;1513;47.650;10.720;2024-03-02T14:14:24;4.93;;;3.20;;
3006;SDS011;1513;47.650;10.720;2024-03-02T14:16:50;4.83;;;3.33;;
3006;SDS011;1513;47.650;10.720;2024-03-02T14:19:16;4.83;;;3.10;;
3006;SDS011;1513;47.650;10.720;2024-03-02T14:21:42;3.93;;;2.73;;
3006;SDS011;1513;47.650;10.720;2024-03-02T14:24:09;5.73;;;3.60;;
3006;SDS011;1513;47.650;10.720;2024-03-02T14:26:35;4.87;;;2.90;;
3006;SDS011;1513;47.650;10.720;2024-03-02T14:29:02;7.30;;;3.40;;
3006;SDS011;1513;47.650;10.720;2024-03-02T14:31:29;4.50;;;3.13;;
3006;SDS011;1513;47.650;10.720;2024-03-02T14:33:58;7.50;;;3.50;;
3006;SDS011;1513;47.650;10.720;2024-03-02T14:36:28;8.70;;;3.50;;
3006;SDS011;1513;47.650;10.720;2024-03-02T14:38:54;5.07;;;3.10;;
3006;SDS011;1513;47.650;10.720;2024-03-02T14:41:20;5.47;;;3.53;;
3006;SDS011;1513;47.650;10.720;2024-03-02T14:43:49;10.13;;;5.93;;
3006;SDS011;1513;47.650;10.720;2024-03-02T14:46:15;8.40;;;3.30;;
3006;SDS011;1513;47.650;10.720;2024-03-02T14:48:43;3.80;;;3.20;;
3006;SDS011;1513;47.650;10.720;2024-03-02T14:51:09;4.63;;;3.43;;
3006;SDS011;1513;47.650;10.720;2024-03-02T14:53:36;6.67;;;3.93;;
3006;SDS011;1513;47.650;10.720;2024-03-02T14:56:03;6.23;;;4.40;;
3006;SDS011;1513;47.650;10.720;2024-03-02T14:58:30;6.83;;;4.47;;
3006;SDS011;1513;47.650;10.720;2024-03-02T15:00:56;8.70;;;5.00;;
3006;SDS011;1513;47.650;10.720;2024-03-02T15:03:22;7.60;;;3.90;;
3006;SDS011;1513;47.650;10.720;2024-03-02T15:05:49;5.80;;;4.10;;
3006;SDS011;1513;47.650;10.720;2024-03-02T15:08:17;7.53;;;4.87;;
3006;SDS011;1513;47.650;10.720;2024-03-02T15:10:43;9.57;;;5.63;;
3006;SDS011;1513;47.650;10.720;2024-03-02T15:13:09;8.03;;;5.07;;
3006;SDS011;1513;47.650;10.720;2024-03-02T15:15:35;10.00;;;5.23;;
3006;SDS011;1513;47.650;10.720;2024-03-02T15:18:01;11.67;;;6.30;;